Time;durP1;ratioP1;P1;durP2;ratioP2;P2;SDS_P1;SDS_P2;PMS_P1;PMS_P2;Temp;Humidity;BMP_temperature;BMP_pressure;BME280_temperature;BME280_humidity;BME280_pressure;Samples;Min_cycle;Max_cycle;Signal;HPM_P1;HPM_P2
2022/07/13 00:01:57;;;;;;;11.77;9.77;;;;;;;;;;5028842;27;100553;-73
2022/07/13 00:04:23;;;;;;;10.63;8.57;;;;;;;;;;5030787;27;100180;-73
2022/07/13 00:06:50;;;;;;;10.15;9.15;;;;;;;;;;5028649;27;99722;-73
2022/07/13 00:09:16;;;;;;;10.05;9.10;;;;;;;;;;5027719;27;99438;-73
2022/07/13 00:11:43;;;;;;;11.38;10.07;;;;;;;;;;5026473;27;99518;-73
2022/07/13 00:14:09;;;;;;;12.32;9.68;;;;;;;;;;5023822;27;100569;-73
2022/07/13 00:16:35;;;;;;;16.27;10.88;;;;;;;;;;5024985;27;100020;-73
2022/07/13 00:19:02;;;;;;;10.57;9.65;;;;;;;;;;5029448;27;99529;-73
2022/07/13 00:21:28;;;;;;;10.93;9.65;;;;;;;;;;5025240;27;99135;-73
2022/07/13 00:23:57;;;;;;;11.40;10.35;;;;;;;;;;5027014;27;99898;-73
2022/07/13 00:26:24;;;;;;;12.45;11.13;;;;;;;;;;5024924;27;100189;-73
2022/07/13 00:28:50;;;;;;;12.55;10.82;;;;;;;;;;5027687;27;100002;-73
2022/07/13 00:31:16;;;;;;;11.80;10.80;;;;;;;;;;5025612;27;99289;-73
2022/07/13 00:33:43;;;;;;;12.35;10.75;;;;;;;;;;5031119;27;100098;-73
2022/07/13 00:36:09;;;;;;;13.32;11.80;;;;;;;;;;5023587;27;99474;-73
2022/07/13 00:38:36;;;;;;;12.32;10.95;;;;;;;;;;5012157;27;100817;-73
2022/07/13 00:41:05;;;;;;;11.95;10.85;;;;;;;;;;5025118;27;99845;-73
2022/07/13 00:43:32;;;;;;;13.68;11.25;;;;;;;;;;5023430;27;99002;-73
2022/07/13 00:45:59;;;;;;;11.45;10.32;;;;;;;;;;5028855;27;99964;-73
2022/07/13 00:48:26;;;;;;;13.18;11.57;;;;;;;;;;5006242;27;101535;-73
2022/07/13 00:50:52;;;;;;;12.93;11.32;;;;;;;;;;5025662;27;100460;-73
2022/07/13 00:53:19;;;;;;;12.55;11.40;;;;;;;;;;5031567;27;100023;-73
2022/07/13 00:55:46;;;;;;;14.35;11.38;;;;;;;;;;5028246;27;101652;-73
2022/07/13 00:58:12;;;;;;;12.40;11.30;;;;;;;;;;5021707;27;99706;-73
2022/07/13 01:00:38;;;;;;;12.38;11.27;;;;;;;;;;5024242;27;99719;-73
2022/07/13 01:03:05;;;;;;;14.77;11.48;;;;;;;;;;5026818;27;100478;-73
2022/07/13 01:05:31;;;;;;;12.65;11.45;;;;;;;;;;5025378;27;100301;-73
2022/07/13 01:07:58;;;;;;;17.88;11.50;;;;;;;;;;5011240;27;99915;-73
2022/07/13 01:10:25;;;;;;;11.50;10.30;;;;;;;;;;5011735;27;99651;-73
2022/07/13 01:12:52;;;;;;;12.00;10.88;;;;;;;;;;5026743;27;99107;-73
2022/07/13 01:15:20;;;;;;;12.93;11.55;;;;;;;;;;5012677;27;100126;-74
2022/07/13 01:17:47;;;;;;;13.93;11.50;;;;;;;;;;5023559;27;100546;-73
2022/07/13 01:20:15;;;;;;;12.40;11.32;;;;;;;;;;5024502;27;100312;-73
2022/07/13 01:22:42;;;;;;;12.63;11.20;;;;;;;;;;5027438;27;99040;-73
2022/07/13 01:25:09;;;;;;;12.82;11.20;;;;;;;;;;5022432;27;99887;-73
2022/07/13 01:27:36;;;;;;;15.35;11.48;;;;;;;;;;5029193;27;99997;-73
2022/07/13 01:30:03;;;;;;;12.07;10.75;;;;;;;;;;5017766;27;101656;-73
2022/07/13 01:32:41;;;;;;;11.98;10.90;;;;;;;;;;5026943;27;99628;-73
2022/07/13 01:35:08;;;;;;;12.02;10.73;;;;;;;;;;5028559;27;100076;-73
2022/07/13 01:37:34;;;;;;;12.02;11.02;;;;;;;;;;5024088;27;100614;-73
2022/07/13 01:40:00;;;;;;;13.02;10.20;;;;;;;;;;5025408;27;99929;-73
2022/07/13 01:42:27;;;;;;;11.10;10.02;;;;;;;;;;5028237;27;99917;-73
2022/07/13 01:44:54;;;;;;;11.90;10.82;;;;;;;;;;5025303;27;99054;-73
2022/07/13 01:47:21;;;;;;;11.65;10.60;;;;;;;;;;5005233;27;100093;-73
2022/07/13 01:49:47;;;;;;;12.30;10.43;;;;;;;;;;5031524;27;100165;-73
2022/07/13 01:52:14;;;;;;;10.88;9.82;;;;;;;;;;5022094;27;100812;-73
2022/07/13 01:54:42;;;;;;;11.68;10.65;;;;;;;;;;5007060;27;99571;-73
2022/07/13 01:57:08;;;;;;;11.65;10.50;;;;;;;;;;5026117;27;99705;-73
2022/07/13 01:59:34;;;;;;;16.63;10.63;;;;;;;;;;5008771;27;99211;-73
2022/07/13 02:02:01;;;;;;;12.23;10.60;;;;;;;;;;5010312;27;101286;-73
2022/07/13 02:04:27;;;;;;;12.15;10.95;;;;;;;;;;5024043;27;100681;-73
2022/07/13 02:06:54;;;;;;;11.27;10.27;;;;;;;;;;5026363;27;98684;-73
2022/07/13 02:09:20;;;;;;;11.82;10.73;;;;;;;;;;5025773;27;100149;-73
2022/07/13 02:11:46;;;;;;;11.63;10.60;;;;;;;;;;5027759;27;99412;-72
2022/07/13 02:14:13;;;;;;;11.65;10.32;;;;;;;;;;5013575;27;99202;-73
2022/07/13 02:16:39;;;;;;;15.00;10.80;;;;;;;;;;5024801;27;98882;-73
2022/07/13 02:19:06;;;;;;;13.63;10.63;;;;;;;;;;5011976;27;98637;-73
2022/07/13 02:21:32;;;;;;;10.95;10.00;;;;;;;;;;5021612;27;100997;-73
2022/07/13 02:23:58;;;;;;;12.23;11.23;;;;;;;;;;5009474;27;101021;-73
2022/07/13 02:26:25;;;;;;;14.23;11.25;;;;;;;;;;5009854;27;99756;-74
2022/07/13 02:28:52;;;;;;;17.35;10.50;;;;;;;;;;5025621;27;101289;-73
2022/07/13 02:31:19;;;;;;;14.55;10.63;;;;;;;;;;5013413;27;101090;-73
2022/07/13 02:33:45;;;;;;;12.13;10.73;;;;;;;;;;5033103;27;99301;-73
2022/07/13 02:36:12;;;;;;;13.65;11.75;;;;;;;;;;5010754;27;100358;-73
2022/07/13 02:38:38;;;;;;;12.40;10.35;;;;;;;;;;5009241;27;100974;-73
2022/07/13 02:41:04;;;;;;;14.43;10.80;;;;;;;;;;5026235;27;100080;-73
2022/07/13 02:43:31;;;;;;;16.67;10.70;;;;;;;;;;5017519;27;102183;-73
2022/07/13 02:45:57;;;;;;;16.88;10.05;;;;;;;;;;5013215;27;99059;-73
2022/07/13 02:48:24;;;;;;;12.80;11.25;;;;;;;;;;5007704;27;100146;-73
2022/07/13 02:50:50;;;;;;;15.77;11.07;;;;;;;;;;5009693;27;102097;-73
2022/07/13 02:53:17;;;;;;;11.43;9.98;;;;;;;;;;5008126;27;100901;-73
2022/07/13 02:55:44;;;;;;;11.80;10.57;;;;;;;;;;5016369;27;100856;-73
2022/07/13 02:58:10;;;;;;;24.98;10.57;;;;;;;;;;5027526;27;99761;-73
2022/07/13 03:00:37;;;;;;;12.55;11.18;;;;;;;;;;5025645;27;99890;-73
2022/07/13 03:03:03;;;;;;;24.83;10.65;;;;;;;;;;5007700;27;101319;-73
2022/07/13 03:05:30;;;;;;;12.73;11.00;;;;;;;;;;5018928;27;100238;-73
2022/07/13 03:07:56;;;;;;;11.93;10.88;;;;;;;;;;5027611;27;99866;-73
2022/07/13 03:10:23;;;;;;;11.68;10.50;;;;;;;;;;5016754;27;100377;-73
2022/07/13 03:12:52;;;;;;;12.43;11.13;;;;;;;;;;5013303;27;99680;-73
2022/07/13 03:15:19;;;;;;;12.88;11.38;;;;;;;;;;5029576;27;99321;-73
2022/07/13 03:17:46;;;;;;;13.85;12.35;;;;;;;;;;5016800;27;100915;-73
2022/07/13 03:20:14;;;;;;;12.93;11.70;;;;;;;;;;5006356;27;103028;-73
2022/07/13 03:22:40;;;;;;;13.10;11.93;;;;;;;;;;5014325;27;101531;-73
2022/07/13 03:25:07;;;;;;;13.10;11.70;;;;;;;;;;5015535;27;100249;-73
2022/07/13 03:27:34;;;;;;;12.93;11.77;;;;;;;;;;5010575;27;99262;-73
2022/07/13 03:30:02;;;;;;;14.73;12.75;;;;;;;;;;5008777;27;101678;-73
2022/07/13 03:32:30;;;;;;;18.67;12.27;;;;;;;;;;5013955;27;100014;-73
2022/07/13 03:34:57;;;;;;;18.83;12.25;;;;;;;;;;5020690;27;101222;-73
2022/07/13 03:37:24;;;;;;;15.68;12.63;;;;;;;;;;5015002;27;99402;-73
2022/07/13 03:39:53;;;;;;;14.32;13.05;;;;;;;;;;5012805;27;100287;-73
2022/07/13 03:42:20;;;;;;;14.57;13.18;;;;;;;;;;5011944;27;102401;-73
2022/07/13 03:44:48;;;;;;;18.38;13.30;;;;;;;;;;5010171;27;100419;-73
2022/07/13 03:47:14;;;;;;;18.38;13.35;;;;;;;;;;5009021;27;101690;-73
2022/07/13 03:49:41;;;;;;;13.73;12.38;;;;;;;;;;5004899;27;99863;-73
2022/07/13 03:52:08;;;;;;;19.00;13.25;;;;;;;;;;5011205;27;100211;-73
2022/07/13 03:54:35;;;;;;;17.92;12.77;;;;;;;;;;5014588;27;100618;-73
2022/07/13 03:57:02;;;;;;;16.08;13.68;;;;;;;;;;5012867;27;101807;-73
2022/07/13 03:59:29;;;;;;;18.33;13.73;;;;;;;;;;5009959;27;99930;-73
2022/07/13 04:01:55;;;;;;;16.90;13.20;;;;;;;;;;5009696;27;99357;-73
2022/07/13 04:04:22;;;;;;;16.30;13.25;;;;;;;;;;5028598;27;100330;-73
2022/07/13 04:06:49;;;;;;;14.82;13.52;;;;;;;;;;5010223;27;101252;-72
2022/07/13 04:09:15;;;;;;;15.15;13.23;;;;;;;;;;5026620;27;99173;-72
2022/07/13 04:11:42;;;;;;;17.80;12.88;;;;;;;;;;5015343;27;100203;-72
2022/07/13 04:14:09;;;;;;;16.17;13.48;;;;;;;;;;5009330;27;99888;-72
2022/07/13 04:16:36;;;;;;;13.52;12.32;;;;;;;;;;5008317;27;100519;-72
2022/07/13 04:19:05;;;;;;;20.88;13.10;;;;;;;;;;5010367;27;100100;-72
2022/07/13 04:21:32;;;;;;;16.85;13.40;;;;;;;;;;5013620;27;100872;-72
2022/07/13 04:23:59;;;;;;;14.57;13.07;;;;;;;;;;5019474;27;99921;-72
2022/07/13 04:26:26;;;;;;;16.10;13.32;;;;;;;;;;5009074;27;100562;-72
2022/07/13 04:28:53;;;;;;;14.40;12.95;;;;;;;;;;5009365;27;100340;-72
2022/07/13 04:31:21;;;;;;;19.77;13.43;;;;;;;;;;5007076;27;100825;-72
2022/07/13 04:33:48;;;;;;;13.98;12.32;;;;;;;;;;5008987;27;101621;-72
2022/07/13 04:36:17;;;;;;;13.98;11.80;;;;;;;;;;5009083;27;100058;-72
2022/07/13 04:38:44;;;;;;;15.93;12.48;;;;;;;;;;5021374;27;100176;-72
2022/07/13 04:41:11;;;;;;;19.95;11.27;;;;;;;;;;5005082;27;100062;-72
2022/07/13 04:43:39;;;;;;;11.95;10.85;;;;;;;;;;5012357;27;99936;-73
2022/07/13 04:46:12;;;;;;;12.73;11.43;;;;;;;;;;5008829;27;101793;-73
2022/07/13 04:48:41;;;;;;;16.85;11.25;;;;;;;;;;5007986;28;102385;-73
2022/07/13 04:51:07;;;;;;;12.40;10.95;;;;;;;;;;5015184;27;98669;-73
2022/07/13 04:53:36;;;;;;;9.90;8.90;;;;;;;;;;5013278;27;99118;-77
2022/07/13 04:56:04;;;;;;;9.77;8.98;;;;;;;;;;5020911;27;100211;-72
2022/07/13 04:58:30;;;;;;;9.20;8.50;;;;;;;;;;5010972;27;98899;-73
2022/07/13 05:00:57;;;;;;;17.63;8.85;;;;;;;;;;5011119;27;101881;-73
2022/07/13 05:03:43;;;;;;;9.57;8.68;;;;;;;;;;5011964;27;102365;-73
2022/07/13 05:06:10;;;;;;;9.77;8.60;;;;;;;;;;5032744;27;98770;-74
2022/07/13 05:08:36;;;;;;;9.15;8.35;;;;;;;;;;5017874;27;100416;-74
2022/07/13 05:11:03;;;;;;;8.43;7.60;;;;;;;;;;5014558;27;99041;-74
2022/07/13 05:13:30;;;;;;;8.70;7.90;;;;;;;;;;5011730;27;101618;-74
2022/07/13 05:15:58;;;;;;;14.32;8.88;;;;;;;;;;5008417;27;101819;-73
2022/07/13 05:18:26;;;;;;;12.48;8.30;;;;;;;;;;5009395;27;99734;-72
2022/07/13 05:20:56;;;;;;;8.80;8.00;;;;;;;;;;5006469;27;101382;-72
2022/07/13 05:23:23;;;;;;;9.55;8.60;;;;;;;;;;5007047;27;101697;-72
2022/07/13 05:25:49;;;;;;;11.50;8.10;;;;;;;;;;5010327;27;100139;-74
2022/07/13 05:28:16;;;;;;;6.93;6.07;;;;;;;;;;5014198;27;100113;-74
2022/07/13 05:30:42;;;;;;;8.02;7.13;;;;;;;;;;5012043;27;99003;-74
2022/07/13 05:33:09;;;;;;;7.15;6.60;;;;;;;;;;5037596;27;100206;-74
2022/07/13 05:35:36;;;;;;;8.18;6.80;;;;;;;;;;5011166;28;101572;-73
2022/07/13 05:38:02;;;;;;;8.82;6.32;;;;;;;;;;5011408;28;98390;-74
2022/07/13 05:40:29;;;;;;;7.75;6.43;;;;;;;;;;5021565;27;99036;-74
2022/07/13 05:42:57;;;;;;;7.65;6.50;;;;;;;;;;5013141;28;99380;-74
2022/07/13 05:45:25;;;;;;;9.90;6.50;;;;;;;;;;5012705;27;99356;-74
2022/07/13 05:47:52;;;;;;;6.03;5.40;;;;;;;;;;5018344;28;101728;-74
2022/07/13 05:50:20;;;;;;;6.93;5.72;;;;;;;;;;5029555;27;100150;-75
2022/07/13 05:52:46;;;;;;;6.40;5.90;;;;;;;;;;5011841;28;101285;-74
2022/07/13 05:55:15;;;;;;;11.02;5.60;;;;;;;;;;5010330;28;100267;-75
2022/07/13 05:57:42;;;;;;;6.65;5.57;;;;;;;;;;5044293;27;98990;-75
2022/07/13 06:00:10;;;;;;;8.10;5.63;;;;;;;;;;5028256;27;100015;-75
2022/07/13 06:02:40;;;;;;;7.47;5.47;;;;;;;;;;5031048;27;99448;-75
2022/07/13 06:05:07;;;;;;;6.68;5.70;;;;;;;;;;5034629;27;98993;-74
2022/07/13 06:07:33;;;;;;;7.43;5.60;;;;;;;;;;5035408;27;98985;-75
2022/07/13 06:10:01;;;;;;;15.30;5.20;;;;;;;;;;5036999;27;101692;-75
2022/07/13 06:12:27;;;;;;;10.45;5.80;;;;;;;;;;5032622;27;99681;-78
2022/07/13 06:14:54;;;;;;;13.75;5.63;;;;;;;;;;5029675;27;100287;-79
2022/07/13 06:17:21;;;;;;;7.13;5.55;;;;;;;;;;5048780;27;98870;-79
2022/07/13 06:19:47;;;;;;;5.78;5.28;;;;;;;;;;5027300;27;99048;-79
2022/07/13 06:22:15;;;;;;;6.32;5.45;;;;;;;;;;5028848;27;100331;-79
2022/07/13 06:24:42;;;;;;;6.55;5.68;;;;;;;;;;5032017;27;98686;-79
2022/07/13 06:27:08;;;;;;;13.20;6.05;;;;;;;;;;5036366;27;99986;-79
2022/07/13 06:29:35;;;;;;;8.27;5.63;;;;;;;;;;5036766;27;100114;-78
2022/07/13 06:32:01;;;;;;;7.65;5.43;;;;;;;;;;5036774;27;98647;-77
2022/07/13 06:34:28;;;;;;;7.57;5.55;;;;;;;;;;5026728;27;101154;-78
2022/07/13 06:36:54;;;;;;;18.92;5.95;;;;;;;;;;5044953;27;100028;-79
2022/07/13 06:39:20;;;;;;;15.43;6.00;;;;;;;;;;5030799;27;98984;-78
2022/07/13 06:41:47;;;;;;;11.15;5.43;;;;;;;;;;5029294;27;99484;-78
2022/07/13 06:44:13;;;;;;;7.32;5.22;;;;;;;;;;5032859;27;98605;-78
2022/07/13 06:46:40;;;;;;;7.15;5.15;;;;;;;;;;5036299;27;100139;-78
2022/07/13 06:49:07;;;;;;;10.52;4.88;;;;;;;;;;5041968;27;100820;-78
2022/07/13 06:51:33;;;;;;;9.40;4.35;;;;;;;;;;5032089;27;97858;-74
2022/07/13 06:54:07;;;;;;;6.30;4.93;;;;;;;;;;5030073;27;98661;-75
2022/07/13 06:56:33;;;;;;;10.52;5.15;;;;;;;;;;5028418;27;99364;-75
2022/07/13 06:59:00;;;;;;;8.55;4.45;;;;;;;;;;5031289;27;101065;-75
2022/07/13 07:01:26;;;;;;;8.57;3.63;;;;;;;;;;5032196;27;100555;-75
2022/07/13 07:03:53;;;;;;;9.98;4.03;;;;;;;;;;5029219;27;99035;-75
2022/07/13 07:06:19;;;;;;;4.55;4.05;;;;;;;;;;5031875;27;99854;-75
2022/07/13 07:08:45;;;;;;;9.25;4.30;;;;;;;;;;5033701;27;100348;-75
2022/07/13 07:11:12;;;;;;;4.45;4.13;;;;;;;;;;5032573;27;98637;-74
2022/07/13 07:13:38;;;;;;;6.45;4.20;;;;;;;;;;5032745;27;99154;-75
2022/07/13 07:16:05;;;;;;;11.82;4.50;;;;;;;;;;5034679;27;98738;-75
2022/07/13 07:18:31;;;;;;;12.05;4.68;;;;;;;;;;5036455;27;99115;-75
2022/07/13 07:21:00;;;;;;;6.30;3.95;;;;;;;;;;5038485;27;100187;-76
2022/07/13 07:23:26;;;;;;;9.27;4.28;;;;;;;;;;5042326;27;99509;-74
2022/07/13 07:25:53;;;;;;;9.43;4.15;;;;;;;;;;5043784;27;101621;-74
2022/07/13 07:28:19;;;;;;;7.35;4.03;;;;;;;;;;5041826;27;100220;-74
2022/07/13 07:30:46;;;;;;;7.72;3.90;;;;;;;;;;5030026;27;99015;-74
2022/07/13 07:33:12;;;;;;;5.40;3.60;;;;;;;;;;5042576;27;99149;-74
2022/07/13 07:35:39;;;;;;;6.53;3.90;;;;;;;;;;5043757;27;100296;-74
2022/07/13 07:38:05;;;;;;;6.45;3.83;;;;;;;;;;5034509;27;99039;-74
2022/07/13 07:40:31;;;;;;;7.35;3.92;;;;;;;;;;5033308;27;99595;-74
2022/07/13 07:42:58;;;;;;;4.15;3.72;;;;;;;;;;5029973;27;98621;-73
2022/07/13 07:45:25;;;;;;;11.93;4.35;;;;;;;;;;5044817;27;99938;-74
2022/07/13 07:47:53;;;;;;;13.63;4.85;;;;;;;;;;5030024;27;100918;-74
2022/07/13 07:50:20;;;;;;;6.75;4.82;;;;;;;;;;5033810;27;98801;-74
2022/07/13 07:52:46;;;;;;;8.35;4.20;;;;;;;;;;5032936;27;100261;-74
2022/07/13 07:55:20;;;;;;;6.57;4.85;;;;;;;;;;5039565;27;100324;-73
2022/07/13 07:57:47;;;;;;;8.57;5.07;;;;;;;;;;5040122;27;98741;-74
2022/07/13 08:00:14;;;;;;;8.15;4.78;;;;;;;;;;5032949;27;100587;-74
2022/07/13 08:02:41;;;;;;;10.05;4.20;;;;;;;;;;5036370;27;99125;-74
2022/07/13 08:05:08;;;;;;;9.68;4.45;;;;;;;;;;5030950;27;100004;-74
2022/07/13 08:07:38;;;;;;;7.32;3.80;;;;;;;;;;5031832;27;100420;-74
2022/07/13 08:10:05;;;;;;;6.47;3.88;;;;;;;;;;5037336;27;100100;-74
2022/07/13 08:12:53;;;;;;;4.90;4.00;;;;;;;;;;5029741;27;100502;-74
2022/07/13 08:15:21;;;;;;;10.02;3.83;;;;;;;;;;5028753;27;100252;-74
2022/07/13 08:17:47;;;;;;;7.38;3.42;;;;;;;;;;5031629;27;98667;-74
2022/07/13 08:20:13;;;;;;;5.80;3.33;;;;;;;;;;5034094;27;100666;-75
2022/07/13 08:22:47;;;;;;;7.85;3.35;;;;;;;;;;5030025;27;99844;-75
2022/07/13 08:25:13;;;;;;;11.07;3.70;;;;;;;;;;5040052;27;101195;-74
2022/07/13 08:27:40;;;;;;;9.27;3.72;;;;;;;;;;5035113;27;100366;-74
2022/07/13 08:30:07;;;;;;;3.60;3.20;;;;;;;;;;5032321;27;99626;-74
2022/07/13 08:32:33;;;;;;;3.80;2.90;;;;;;;;;;5034719;27;99568;-74
2022/07/13 08:40:30;;;;;;;3.38;2.50;;;;;;;;;;5040941;27;100894;-75
2022/07/13 08:42:56;;;;;;;5.50;2.67;;;;;;;;;;5032807;27;100273;-73
2022/07/13 08:45:24;;;;;;;4.50;2.97;;;;;;;;;;5030425;27;100127;-73
2022/07/13 08:47:50;;;;;;;7.10;2.88;;;;;;;;;;5027493;27;100413;-74
2022/07/13 08:50:20;;;;;;;7.18;3.00;;;;;;;;;;5030138;27;98688;-73
2022/07/13 08:52:46;;;;;;;3.10;2.63;;;;;;;;;;5035050;27;99991;-72
2022/07/13 08:55:12;;;;;;;6.03;2.47;;;;;;;;;;5045050;27;99413;-73
2022/07/13 08:57:39;;;;;;;6.60;2.53;;;;;;;;;;5028900;27;99327;-74
2022/07/13 09:00:09;;;;;;;3.03;2.72;;;;;;;;;;5042240;27;99202;-74
2022/07/13 09:02:36;;;;;;;7.13;3.33;;;;;;;;;;5029255;27;102196;-74
2022/07/13 09:05:04;;;;;;;7.68;2.65;;;;;;;;;;5033440;27;98640;-73
2022/07/13 09:07:31;;;;;;;12.43;2.47;;;;;;;;;;5035119;27;100458;-74
2022/07/13 09:09:58;;;;;;;2.63;2.40;;;;;;;;;;5028764;27;99092;-78
2022/07/13 09:12:34;;;;;;;6.57;2.40;;;;;;;;;;5031511;27;98933;-74
2022/07/13 09:15:02;;;;;;;2.60;2.25;;;;;;;;;;5034776;27;99623;-74
2022/07/13 09:17:44;;;;;;;7.38;2.22;;;;;;;;;;5036815;27;98685;-74
2022/07/13 09:20:10;;;;;;;3.40;2.15;;;;;;;;;;5030139;27;99849;-74
2022/07/13 09:22:46;;;;;;;3.55;2.08;;;;;;;;;;5028015;27;99711;-74
2022/07/13 09:25:23;;;;;;;3.58;2.08;;;;;;;;;;5028573;27;98616;-74
2022/07/13 09:27:50;;;;;;;10.80;4.35;;;;;;;;;;5030095;27;99666;-73
2022/07/13 09:30:23;;;;;;;5.45;3.60;;;;;;;;;;5026822;27;98598;-73
2022/07/13 09:32:51;;;;;;;10.50;3.58;;;;;;;;;;5037249;27;99990;-74
2022/07/13 09:35:18;;;;;;;8.10;4.00;;;;;;;;;;5028609;27;99177;-74
2022/07/13 09:37:44;;;;;;;6.15;2.60;;;;;;;;;;5027904;27;100523;-74
2022/07/13 09:40:11;;;;;;;5.22;1.77;;;;;;;;;;5032563;27;99350;-73
2022/07/13 09:42:39;;;;;;;9.30;2.03;;;;;;;;;;5027425;27;99240;-74
2022/07/13 09:47:55;;;;;;;4.47;1.50;;;;;;;;;;5029751;27;98514;-73
2022/07/13 09:50:22;;;;;;;5.10;1.40;;;;;;;;;;5030934;27;99335;-73
2022/07/13 09:52:49;;;;;;;5.70;1.80;;;;;;;;;;5029189;27;100789;-73
2022/07/13 09:55:19;;;;;;;1.48;1.33;;;;;;;;;;5033858;27;100232;-73
2022/07/13 09:57:47;;;;;;;5.03;1.75;;;;;;;;;;5035099;27;99023;-73
2022/07/13 10:00:27;;;;;;;2.92;1.60;;;;;;;;;;5043604;27;99039;-73
2022/07/13 10:02:53;;;;;;;3.80;1.63;;;;;;;;;;5028237;27;99283;-73
2022/07/13 10:05:20;;;;;;;3.17;1.63;;;;;;;;;;5028003;27;98590;-73
2022/07/13 10:07:47;;;;;;;4.00;1.38;;;;;;;;;;5027451;27;100930;-73
2022/07/13 10:10:15;;;;;;;4.32;1.50;;;;;;;;;;5031754;27;98497;-73
2022/07/13 10:12:42;;;;;;;1.45;1.35;;;;;;;;;;5027940;27;100356;-73
2022/07/13 10:15:10;;;;;;;1.77;1.63;;;;;;;;;;5041139;27;100800;-73
2022/07/13 10:17:37;;;;;;;4.63;1.30;;;;;;;;;;5039497;27;99336;-73
2022/07/13 10:20:13;;;;;;;2.25;1.35;;;;;;;;;;5036145;27;100674;-73
2022/07/13 10:22:42;;;;;;;3.60;1.20;;;;;;;;;;5032815;27;101720;-73
2022/07/13 10:25:08;;;;;;;6.90;1.35;;;;;;;;;;5028958;27;99629;-73
2022/07/13 10:27:36;;;;;;;1.70;1.60;;;;;;;;;;5033927;27;99080;-73
2022/07/13 10:30:07;;;;;;;6.57;1.50;;;;;;;;;;5028967;27;99713;-73
2022/07/13 10:32:34;;;;;;;3.92;1.80;;;;;;;;;;5032059;27;98577;-73
2022/07/13 10:35:02;;;;;;;2.88;1.20;;;;;;;;;;5030303;27;99836;-72
2022/07/13 10:37:28;;;;;;;2.03;1.35;;;;;;;;;;5029210;27;98617;-73
2022/07/13 10:40:12;;;;;;;5.78;1.85;;;;;;;;;;5031744;27;99942;-72
2022/07/13 10:42:53;;;;;;;3.28;1.50;;;;;;;;;;5036696;27;101079;-73
2022/07/13 10:45:33;;;;;;;1.65;1.52;;;;;;;;;;5046504;27;98636;-73
2022/07/13 10:48:00;;;;;;;7.05;1.42;;;;;;;;;;5030670;27;98810;-73
2022/07/13 10:50:26;;;;;;;1.77;1.67;;;;;;;;;;5033220;27;101255;-73
2022/07/13 10:52:52;;;;;;;1.52;1.42;;;;;;;;;;5046386;27;99626;-73
2022/07/13 10:55:51;;;;;;;3.35;1.70;;;;;;;;;;5036044;27;99030;-74
2022/07/13 10:58:32;;;;;;;5.32;1.85;;;;;;;;;;5035662;27;99209;-72
2022/07/13 11:01:00;;;;;;;4.78;1.70;;;;;;;;;;5031603;27;99023;-74
2022/07/13 11:03:43;;;;;;;1.98;1.88;;;;;;;;;;5037474;27;99966;-72
2022/07/13 11:06:14;;;;;;;2.95;1.70;;;;;;;;;;5040177;27;98904;-73
2022/07/13 11:08:42;;;;;;;8.57;1.63;;;;;;;;;;5035833;27;100011;-73
2022/07/13 11:11:16;;;;;;;2.75;1.38;;;;;;;;;;5033727;27;100312;-74
2022/07/13 11:13:46;;;;;;;5.03;1.63;;;;;;;;;;5035954;27;101524;-71
2022/07/13 11:16:13;;;;;;;1.95;1.45;;;;;;;;;;5028802;27;99868;-74
2022/07/13 11:18:41;;;;;;;6.20;1.17;;;;;;;;;;5041207;27;100087;-71
2022/07/13 11:21:25;;;;;;;2.83;1.50;;;;;;;;;;5031843;27;100646;-73
2022/07/13 11:26:46;;;;;;;2.50;1.48;;;;;;;;;;5017150;27;99313;-73
2022/07/13 11:29:31;;;;;;;8.23;2.45;;;;;;;;;;5031274;27;99263;-73
2022/07/13 11:31:59;;;;;;;2.60;1.75;;;;;;;;;;5029817;27;99381;-73
2022/07/13 11:34:28;;;;;;;2.03;1.70;;;;;;;;;;5039277;27;101254;-73
2022/07/13 11:37:03;;;;;;;5.30;1.83;;;;;;;;;;5012642;28;99698;-73
2022/07/13 11:39:36;;;;;;;1.90;1.63;;;;;;;;;;5031070;27;100152;-73
2022/07/13 11:42:09;;;;;;;5.07;2.28;;;;;;;;;;5034535;27;98593;-73
2022/07/13 11:44:36;;;;;;;3.83;1.70;;;;;;;;;;5029766;27;99253;-73
2022/07/13 11:47:04;;;;;;;4.72;1.55;;;;;;;;;;5038292;27;100522;-73
2022/07/13 11:49:41;;;;;;;6.53;1.45;;;;;;;;;;5029930;27;100312;-73
2022/07/13 11:52:08;;;;;;;1.63;1.40;;;;;;;;;;5037674;27;99066;-74
2022/07/13 11:54:34;;;;;;;6.68;1.83;;;;;;;;;;5032475;27;98621;-73
2022/07/13 11:57:07;;;;;;;3.40;1.65;;;;;;;;;;5029732;27;99897;-73
2022/07/13 11:59:34;;;;;;;1.60;1.35;;;;;;;;;;5033378;27;101182;-73
2022/07/13 12:02:02;;;;;;;1.63;1.50;;;;;;;;;;5032524;27;99007;-73
2022/07/13 12:04:28;;;;;;;2.95;1.63;;;;;;;;;;5040887;27;99846;-73
2022/07/13 12:07:10;;;;;;;1.95;1.85;;;;;;;;;;5037290;27;98652;-73
2022/07/13 12:09:45;;;;;;;2.58;1.48;;;;;;;;;;5030222;27;100107;-73
2022/07/13 12:12:12;;;;;;;4.13;2.00;;;;;;;;;;5031399;27;102012;-71
2022/07/13 12:14:38;;;;;;;4.75;2.33;;;;;;;;;;5039876;27;100028;-71
2022/07/13 12:17:06;;;;;;;8.70;1.70;;;;;;;;;;5032571;27;100716;-71
2022/07/13 12:19:33;;;;;;;3.80;1.70;;;;;;;;;;5028300;27;100467;-71
2022/07/13 12:21:59;;;;;;;2.75;1.73;;;;;;;;;;5033061;27;98728;-73
2022/07/13 12:24:29;;;;;;;3.25;1.60;;;;;;;;;;5033073;27;101914;-72
2022/07/13 12:26:56;;;;;;;8.48;1.90;;;;;;;;;;5030647;27;98959;-71
2022/07/13 12:29:26;;;;;;;6.00;1.58;;;;;;;;;;5030203;27;99204;-72
2022/07/13 12:31:52;;;;;;;2.33;1.77;;;;;;;;;;5039282;27;100258;-72
2022/07/13 12:34:20;;;;;;;2.67;1.95;;;;;;;;;;5036705;27;98579;-72
2022/07/13 12:36:50;;;;;;;6.93;1.85;;;;;;;;;;5036053;27;100058;-71
2022/07/13 12:39:20;;;;;;;4.45;1.67;;;;;;;;;;5034316;27;100084;-71
2022/07/13 12:41:55;;;;;;;7.47;2.35;;;;;;;;;;5041442;27;99134;-72
2022/07/13 12:44:31;;;;;;;7.93;1.67;;;;;;;;;;5029529;27;99586;-71
2022/07/13 12:47:01;;;;;;;5.32;1.55;;;;;;;;;;5035907;27;100240;-71
2022/07/13 12:49:34;;;;;;;2.95;1.58;;;;;;;;;;5030200;27;101027;-72
2022/07/13 12:52:04;;;;;;;1.60;1.38;;;;;;;;;;5034929;27;100306;-73
2022/07/13 12:54:47;;;;;;;2.40;1.40;;;;;;;;;;5030146;27;100253;-71
2022/07/13 12:57:15;;;;;;;2.67;1.80;;;;;;;;;;5039946;27;100409;-72
2022/07/13 12:59:56;;;;;;;5.18;1.60;;;;;;;;;;5031543;27;100984;-72
2022/07/13 13:02:22;;;;;;;3.87;1.70;;;;;;;;;;5042296;27;99045;-71
2022/07/13 13:04:49;;;;;;;2.65;1.88;;;;;;;;;;5038825;27;100092;-71
2022/07/13 13:07:17;;;;;;;7.47;1.75;;;;;;;;;;5043703;27;99722;-71
2022/07/13 13:09:43;;;;;;;3.97;1.90;;;;;;;;;;5043341;27;98586;-71
2022/07/13 13:12:10;;;;;;;3.20;1.83;;;;;;;;;;5029672;27;100142;-71
2022/07/13 13:14:37;;;;;;;2.70;1.80;;;;;;;;;;5042688;27;100138;-71
2022/07/13 13:17:03;;;;;;;3.00;1.75;;;;;;;;;;5037688;27;99875;-72
2022/07/13 13:19:30;;;;;;;2.25;1.98;;;;;;;;;;5028678;27;99906;-72
2022/07/13 13:22:16;;;;;;;3.15;1.48;;;;;;;;;;5032555;27;98682;-72
2022/07/13 13:24:43;;;;;;;1.73;1.50;;;;;;;;;;5040089;27;99023;-72
2022/07/13 13:27:09;;;;;;;5.38;2.47;;;;;;;;;;5029036;27;100266;-72
2022/07/13 13:32:40;;;;;;;2.35;1.70;;;;;;;;;;5037831;27;98900;-73
2022/07/13 13:35:08;;;;;;;3.47;1.42;;;;;;;;;;5042102;27;98699;-73
2022/07/13 13:37:35;;;;;;;5.82;2.20;;;;;;;;;;5028973;27;100556;-72
2022/07/13 13:40:01;;;;;;;2.72;1.70;;;;;;;;;;5041530;27;100109;-73
2022/07/13 13:42:27;;;;;;;6.03;1.92;;;;;;;;;;5036212;27;98880;-73
2022/07/13 13:45:14;;;;;;;1.75;1.52;;;;;;;;;;5033740;27;99876;-73
2022/07/13 13:47:40;;;;;;;4.57;1.60;;;;;;;;;;5028473;27;100426;-72
2022/07/13 13:50:07;;;;;;;2.60;1.50;;;;;;;;;;5029268;27;99018;-73
2022/07/13 13:52:34;;;;;;;2.38;1.40;;;;;;;;;;5031055;27;100728;-72
2022/07/13 13:55:01;;;;;;;4.70;1.92;;;;;;;;;;5032382;27;101092;-72
2022/07/13 13:57:27;;;;;;;1.38;1.27;;;;;;;;;;5029772;27;100129;-72
2022/07/13 13:59:54;;;;;;;4.78;1.58;;;;;;;;;;5028300;27;100691;-73
2022/07/13 14:02:41;;;;;;;3.13;2.03;;;;;;;;;;5028858;27;98668;-72
2022/07/13 14:05:08;;;;;;;5.88;1.90;;;;;;;;;;5029109;27;100756;-73
2022/07/13 14:07:34;;;;;;;6.22;2.00;;;;;;;;;;5027365;27;100226;-72
2022/07/13 14:10:01;;;;;;;1.40;1.30;;;;;;;;;;5032084;27;99076;-72
2022/07/13 14:12:28;;;;;;;1.70;1.60;;;;;;;;;;5030517;27;100220;-73
2022/07/13 14:14:54;;;;;;;9.50;1.67;;;;;;;;;;5037657;27;100015;-73
2022/07/13 14:17:21;;;;;;;2.97;1.90;;;;;;;;;;5047806;27;98848;-73
2022/07/13 14:19:47;;;;;;;4.10;2.05;;;;;;;;;;5046287;27;99260;-72
2022/07/13 14:22:34;;;;;;;5.72;2.30;;;;;;;;;;5037009;27;97822;-72
2022/07/13 14:25:00;;;;;;;3.38;2.30;;;;;;;;;;5034523;27;99771;-72
2022/07/13 14:27:27;;;;;;;3.83;2.40;;;;;;;;;;5034393;27;99379;-72
2022/07/13 14:29:54;;;;;;;3.63;2.60;;;;;;;;;;5034504;27;100530;-72
2022/07/13 14:32:20;;;;;;;6.25;2.40;;;;;;;;;;5043005;27;100499;-72
2022/07/13 14:34:57;;;;;;;2.75;2.13;;;;;;;;;;5044680;27;99105;-72
2022/07/13 14:37:24;;;;;;;9.95;2.25;;;;;;;;;;5055802;27;98566;-72
2022/07/13 14:39:51;;;;;;;7.93;2.60;;;;;;;;;;5041930;27;99495;-72
2022/07/13 14:42:18;;;;;;;5.03;2.58;;;;;;;;;;5039000;27;98654;-72
2022/07/13 14:44:45;;;;;;;8.02;2.47;;;;;;;;;;5035291;27;99910;-72
2022/07/13 14:47:18;;;;;;;2.40;2.20;;;;;;;;;;5034565;27;99457;-72
2022/07/13 14:49:55;;;;;;;5.40;2.70;;;;;;;;;;5036123;27;100084;-72